Time;durP1;ratioP1;P1;durP2;ratioP2;P2;SDS_P1;SDS_P2;PMS_P1;PMS_P2;Temp;Humidity;BMP_temperature;BMP_pressure;BME280_temperature;BME280_humidity;BME280_pressure;Samples;Min_cycle;Max_cycle;Signal;HPM_P1;HPM_P2
2021/05/18 00:02:19;;;;;;;1.50;0.50;;;;;;;9.76;79.26;95000.84;4994246;28;20026;-61
2021/05/18 00:04:45;;;;;;;1.70;0.45;;;;;;;9.83;81.79;94998.56;4991393;28;20038;-61
2021/05/18 00:07:15;;;;;;;1.23;0.52;;;;;;;9.60;79.65;95005.72;4992659;28;20162;-62
2021/05/18 00:12:25;;;;;;;1.80;0.40;;;;;;;9.84;81.99;94999.34;4992090;28;20041;-61
2021/05/18 00:14:50;;;;;;;0.35;0.30;;;;;;;9.85;79.76;95014.19;4992626;28;20181;-63
2021/05/18 00:17:15;;;;;;;1.10;0.25;;;;;;;9.93;79.54;95010.81;4994323;28;20030;-62
2021/05/18 00:19:41;;;;;;;0.28;0.28;;;;;;;10.09;78.39;95008.59;4992362;28;20420;-63
2021/05/18 00:22:06;;;;;;;0.80;0.30;;;;;;;10.11;77.10;95015.16;4990796;28;20031;-62
2021/05/18 00:24:32;;;;;;;1.20;0.50;;;;;;;10.07;78.20;95016.06;4992177;28;20491;-63
2021/05/18 00:27:02;;;;;;;0.95;0.22;;;;;;;9.63;77.51;95028.25;4990958;28;20039;-62
2021/05/18 00:29:28;;;;;;;0.40;0.20;;;;;;;9.95;76.96;95034.44;4992259;28;20030;-62
2021/05/18 00:31:53;;;;;;;0.28;0.28;;;;;;;10.03;76.28;95034.50;4994066;28;20434;-63
2021/05/18 00:34:18;;;;;;;2.88;1.25;;;;;;;9.98;78.38;95023.19;4991493;28;20042;-63
2021/05/18 00:36:44;;;;;;;2.00;0.70;;;;;;;10.24;78.66;95013.53;4992091;28;20047;-62
2021/05/18 00:39:09;;;;;;;1.02;0.50;;;;;;;10.40;79.23;95020.03;4992172;28;20037;-63
2021/05/18 00:41:34;;;;;;;0.45;0.28;;;;;;;10.23;76.77;95017.25;4992288;28;20654;-63
2021/05/18 00:44:00;;;;;;;0.30;0.30;;;;;;;10.32;76.62;95030.63;4992325;28;20077;-63
2021/05/18 00:46:26;;;;;;;0.70;0.15;;;;;;;10.24;79.01;95023.41;4990812;28;20122;-62
2021/05/18 00:48:58;;;;;;;0.20;0.20;;;;;;;10.09;76.28;95024.53;4992280;28;20511;-63
2021/05/18 00:51:27;;;;;;;0.73;0.40;;;;;;;10.08;77.00;95020.28;4992063;28;20046;-62
2021/05/18 00:53:53;;;;;;;0.75;0.30;;;;;;;10.32;78.18;95023.44;4991304;28;20030;-62
2021/05/18 00:59:04;;;;;;;1.08;0.30;;;;;;;10.00;76.67;95013.03;4992210;28;20404;-62
2021/05/18 01:01:31;;;;;;;1.45;0.20;;;;;;;10.08;74.82;95034.38;4991814;28;20041;-62
2021/05/18 01:03:57;;;;;;;0.40;0.10;;;;;;;10.23;77.06;95037.72;4991199;28;20054;-62
2021/05/18 01:08:55;;;;;;;0.75;0.30;;;;;;;10.07;76.75;95047.94;4991825;28;20053;-63
2021/05/18 01:11:24;;;;;;;0.68;0.20;;;;;;;9.86;73.86;95037.00;4993572;28;20538;-62
2021/05/18 01:14:00;;;;;;;0.40;0.17;;;;;;;9.79;75.56;95034.00;4990139;28;20043;-62
2021/05/18 01:16:27;;;;;;;0.28;0.17;;;;;;;10.08;75.96;95038.88;4991570;28;20399;-63
2021/05/18 01:18:53;;;;;;;0.38;0.10;;;;;;;10.20;77.37;95035.69;4991196;28;20435;-62
2021/05/18 01:21:19;;;;;;;0.85;0.20;;;;;;;9.89;73.28;95039.06;4991509;28;20026;-62
2021/05/18 01:23:45;;;;;;;0.30;0.30;;;;;;;9.95;75.63;95031.78;4989735;28;20029;-62
2021/05/18 01:26:12;;;;;;;0.13;0.00;;;;;;;10.08;73.59;95055.63;4992839;28;20027;-63
2021/05/18 01:28:37;;;;;;;1.13;0.10;;;;;;;9.92;74.10;95035.00;4991436;28;20042;-62
2021/05/18 01:31:05;;;;;;;1.45;0.20;;;;;;;10.03;76.26;95046.97;4991302;28;20038;-62
2021/05/18 01:33:31;;;;;;;0.05;0.05;;;;;;;10.15;76.11;95039.25;4990729;28;20093;-63
2021/05/18 01:35:58;;;;;;;0.35;0.10;;;;;;;10.04;73.62;95056.53;4990976;28;20439;-63
2021/05/18 01:38:31;;;;;;;0.08;0.08;;;;;;;10.20;73.52;95049.75;4992903;28;20064;-63
2021/05/18 01:43:48;;;;;;;0.75;0.10;;;;;;;9.72;74.53;95044.25;4990532;28;20096;-63
2021/05/18 01:46:13;;;;;;;0.22;0.20;;;;;;;9.74;75.57;95045.53;4990633;28;20042;-63
2021/05/18 01:48:47;;;;;;;0.35;0.13;;;;;;;10.12;74.68;95061.09;4989396;28;20047;-63
2021/05/18 01:51:13;;;;;;;0.20;0.10;;;;;;;10.16;73.97;95051.44;4990754;28;20034;-63
2021/05/18 01:53:38;;;;;;;0.30;0.15;;;;;;;9.82;74.20;95062.59;4990206;28;20037;-63
2021/05/18 01:58:35;;;;;;;0.93;0.20;;;;;;;10.02;75.75;95053.38;4990713;28;20518;-63
2021/05/18 02:01:00;;;;;;;0.32;0.15;;;;;;;9.69;75.12;95069.53;4990301;28;20045;-63
2021/05/18 02:03:26;;;;;;;0.50;0.00;;;;;;;9.99;75.57;95059.31;4989944;28;20032;-63
2021/05/18 02:05:52;;;;;;;0.32;0.10;;;;;;;9.70;74.84;95057.81;4990384;28;20117;-63
2021/05/18 02:08:18;;;;;;;0.75;0.10;;;;;;;10.10;74.92;95065.97;4992288;28;20113;-63
2021/05/18 02:10:43;;;;;;;0.80;0.20;;;;;;;10.13;74.58;95065.34;4990427;28;20035;-63
2021/05/18 02:13:10;;;;;;;0.28;0.20;;;;;;;9.88;74.24;95064.09;4989854;28;20133;-63
2021/05/18 02:26:21;;;;;;;1.65;0.38;;;;;;;10.52;74.13;95067.34;4992095;28;20042;-63
2021/05/18 02:28:47;;;;;;;1.27;0.30;;;;;;;10.18;73.29;95069.75;4989935;28;20035;-62
2021/05/18 02:31:13;;;;;;;2.00;0.47;;;;;;;10.27;73.77;95082.03;4990111;28;20039;-63
2021/05/18 02:33:39;;;;;;;0.38;0.22;;;;;;;10.20;74.71;95072.91;4989459;28;20030;-63
2021/05/18 02:36:06;;;;;;;0.75;0.30;;;;;;;10.11;74.05;95078.16;4989879;28;20093;-63
2021/05/18 02:38:32;;;;;;;0.68;0.20;;;;;;;9.95;74.27;95080.38;4989894;28;20105;-62
2021/05/18 02:40:57;;;;;;;0.22;0.22;;;;;;;10.26;74.42;95080.47;4990412;28;20425;-62
2021/05/18 02:43:27;;;;;;;0.38;0.25;;;;;;;10.24;74.73;95074.69;4989379;28;20038;-63
2021/05/18 02:51:03;;;;;;;2.22;0.28;;;;;;;9.62;75.67;95074.47;4989565;28;20037;-63
2021/05/18 02:53:28;;;;;;;1.00;0.30;;;;;;;10.31;75.50;95076.91;4988155;28;20026;-63
2021/05/18 02:56:00;;;;;;;0.75;0.30;;;;;;;10.03;74.09;95065.56;4991197;28;20560;-63
2021/05/18 02:58:27;;;;;;;2.35;0.20;;;;;;;10.18;75.12;95075.06;4989637;28;20036;-65
2021/05/18 03:00:53;;;;;;;0.82;0.20;;;;;;;10.33;75.46;95066.75;4988143;28;20526;-63
2021/05/18 03:03:18;;;;;;;2.67;0.20;;;;;;;10.14;73.14;95069.59;4989121;28;20074;-63
2021/05/18 03:05:44;;;;;;;1.35;0.20;;;;;;;10.36;73.82;95058.97;4989446;28;20098;-63
2021/05/18 03:08:11;;;;;;;1.25;0.20;;;;;;;10.11;76.17;95067.53;4991474;28;20042;-62
2021/05/18 03:10:37;;;;;;;1.38;0.22;;;;;;;9.82;75.80;95075.88;4989389;28;20026;-62
2021/05/18 03:13:03;;;;;;;1.33;0.40;;;;;;;9.78;75.83;95078.38;4988291;28;20699;-63
2021/05/18 03:15:30;;;;;;;1.15;0.20;;;;;;;10.18;75.05;95080.38;4989350;28;20173;-63
2021/05/18 03:17:56;;;;;;;2.35;0.30;;;;;;;9.88;75.34;95067.53;4989433;28;20045;-63
2021/05/18 03:20:21;;;;;;;0.38;0.20;;;;;;;10.23;75.09;95085.56;4991261;28;20027;-63
2021/05/18 03:22:47;;;;;;;0.35;0.10;;;;;;;10.16;74.92;95075.38;4988926;28;20039;-63
2021/05/18 03:25:13;;;;;;;0.15;0.10;;;;;;;9.96;74.42;95078.50;4988993;28;20053;-62
2021/05/18 03:27:39;;;;;;;1.13;0.30;;;;;;;10.16;75.94;95083.34;4989478;28;20197;-63
2021/05/18 03:35:42;;;;;;;0.85;0.20;;;;;;;10.03;74.91;95092.97;4989663;28;20600;-63
2021/05/18 03:38:28;;;;;;;0.55;0.22;;;;;;;9.95;75.80;95093.66;4991180;28;20070;-63
2021/05/18 03:41:00;;;;;;;1.00;0.30;;;;;;;9.92;75.06;95093.47;4988479;28;20129;-63
2021/05/18 03:48:39;;;;;;;0.88;0.20;;;;;;;9.90;75.82;95075.97;4988939;28;20145;-63
2021/05/18 03:48:40;;;;;;;1.08;0.38;;;;;;;9.61;75.69;95092.25;4989134;28;20100;-63
2021/05/18 03:54:02;;;;;;;0.75;0.28;;;;;;;9.86;75.93;95090.13;4988545;28;20050;-63
2021/05/18 04:04:30;;;;;;;0.95;0.20;;;;;;;10.08;73.92;95076.09;4988092;28;20140;-62
2021/05/18 04:18:04;;;;;;;1.65;0.50;;;;;;;10.35;72.35;95091.97;4988935;28;20045;-62
2021/05/18 05:08:48;;;;;;;0.20;0.10;;;;;;;10.53;69.50;95123.97;4991938;28;20049;-62
2021/05/18 05:16:26;;;;;;;0.40;0.20;;;;;;;10.40;69.43;95141.56;4991238;28;20475;-63
2021/05/18 05:18:53;;;;;;;0.20;0.10;;;;;;;10.60;69.93;95142.97;4991326;28;20702;-63
2021/05/18 05:21:28;;;;;;;0.47;0.20;;;;;;;10.34;70.15;95143.56;4991404;28;20068;-62
2021/05/18 05:23:53;;;;;;;1.42;0.28;;;;;;;9.98;70.94;95140.91;4989384;28;20043;-63
2021/05/18 05:26:19;;;;;;;0.45;0.20;;;;;;;10.23;70.85;95158.13;4991623;28;20069;-62
2021/05/18 05:28:44;;;;;;;0.20;0.10;;;;;;;10.04;71.90;95160.97;4991254;28;20513;-63
2021/05/18 05:31:10;;;;;;;0.75;0.68;;;;;;;10.32;70.92;95161.69;4991236;28;20647;-62
2021/05/18 05:33:35;;;;;;;0.32;0.28;;;;;;;11.02;71.19;95151.50;4990509;28;20349;-63
2021/05/18 05:36:00;;;;;;;1.85;0.20;;;;;;;10.74;68.76;95135.66;4990332;28;20042;-64
2021/05/18 05:38:28;;;;;;;3.28;0.20;;;;;;;11.40;69.19;95167.78;4990645;28;20050;-63
2021/05/18 05:40:53;;;;;;;0.40;0.20;;;;;;;11.47;67.84;95170.78;4992874;28;20031;-64
2021/05/18 05:43:19;;;;;;;4.15;0.80;;;;;;;11.51;68.52;95168.28;4990253;28;20056;-64
2021/05/18 05:45:44;;;;;;;1.38;0.70;;;;;;;11.30;67.46;95168.03;4990557;28;20055;-61
2021/05/18 05:48:10;;;;;;;0.30;0.30;;;;;;;10.97;67.88;95148.97;4990577;28;20516;-64
2021/05/18 05:50:35;;;;;;;1.25;0.63;;;;;;;10.87;68.57;95172.06;4989475;28;20104;-63
2021/05/18 05:53:01;;;;;;;0.43;0.30;;;;;;;11.23;68.31;95165.84;4990799;28;20030;-59
2021/05/18 05:55:26;;;;;;;1.30;0.22;;;;;;;11.21;68.85;95181.34;4990070;28;20034;-64
2021/05/18 05:57:52;;;;;;;0.65;0.15;;;;;;;11.03;67.47;95166.34;4990780;28;20108;-65
2021/05/18 06:00:18;;;;;;;0.60;0.50;;;;;;;10.70;69.04;95192.44;4989237;28;20057;-64
2021/05/18 06:02:43;;;;;;;0.20;0.20;;;;;;;10.76;68.04;95178.75;4989933;28;20065;-66
2021/05/18 06:05:09;;;;;;;1.60;0.30;;;;;;;11.46;69.80;95185.19;4991269;28;20030;-61
2021/05/18 06:07:35;;;;;;;1.05;0.22;;;;;;;11.89;65.02;95177.34;4990156;28;20049;-66
2021/05/18 06:10:07;;;;;;;0.65;0.20;;;;;;;11.61;66.51;95181.31;4988980;28;20047;-71
2021/05/18 06:12:48;;;;;;;1.40;0.17;;;;;;;11.88;65.64;95193.66;4989696;28;20042;-67
2021/05/18 06:47:31;;;;;;;1.52;0.73;;;;;;;11.02;63.56;95076.97;4989957;28;20049;-64
2021/05/18 06:52:35;;;;;;;2.08;0.40;;;;;;;12.92;63.67;95220.38;4989078;28;20129;-70
2021/05/18 06:55:01;;;;;;;3.70;0.38;;;;;;;13.39;62.12;95237.28;4989447;28;20205;-65
2021/05/18 06:57:29;;;;;;;0.77;0.35;;;;;;;13.65;62.28;95241.75;4989535;28;20038;-66
2021/05/18 07:00:07;;;;;;;1.40;0.50;;;;;;;12.59;65.01;95233.41;4989566;28;20046;-66
2021/05/18 07:02:33;;;;;;;3.30;0.40;;;;;;;13.31;63.15;95229.28;4988983;28;20026;-66
2021/05/18 07:04:58;;;;;;;4.43;0.80;;;;;;;14.16;59.94;95213.19;4991644;28;20037;-68
2021/05/18 07:07:28;;;;;;;9.35;1.75;;;;;;;14.54;60.96;95232.63;4989849;28;20565;-65
2021/05/18 07:09:53;;;;;;;0.80;0.45;;;;;;;12.83;62.46;95233.72;4989753;28;20177;-61
2021/05/18 07:12:19;;;;;;;0.95;0.30;;;;;;;12.27;63.67;95226.66;4988227;28;20594;-67
2021/05/18 07:14:44;;;;;;;0.30;0.30;;;;;;;12.28;64.22;95225.56;4989869;28;20740;-65
2021/05/18 07:17:10;;;;;;;3.13;0.77;;;;;;;13.50;62.97;95229.69;4989795;28;20504;-62
2021/05/18 07:19:35;;;;;;;3.45;0.50;;;;;;;12.83;61.62;95222.28;4988257;28;20034;-61
2021/05/18 07:22:00;;;;;;;5.10;0.40;;;;;;;13.10;63.08;95232.59;4989323;28;20085;-63
2021/05/18 07:24:29;;;;;;;5.07;0.70;;;;;;;13.83;60.88;95226.44;4988658;28;20038;-64
2021/05/18 07:26:56;;;;;;;2.05;0.40;;;;;;;14.15;58.20;95227.69;4989164;28;20049;-64
2021/05/18 07:29:21;;;;;;;0.80;0.30;;;;;;;13.24;59.55;95248.47;4991206;28;20112;-64
2021/05/18 07:31:47;;;;;;;0.70;0.30;;;;;;;13.47;61.29;95223.13;4989188;28;20086;-67
2021/05/18 07:34:12;;;;;;;1.23;0.30;;;;;;;14.28;60.45;95189.97;4987218;28;20034;-65
2021/05/18 07:36:38;;;;;;;1.17;0.30;;;;;;;15.06;58.53;95208.09;4987777;28;20043;-64
2021/05/18 07:39:04;;;;;;;1.40;0.40;;;;;;;15.03;57.05;95229.38;4987790;28;20034;-66
2021/05/18 07:41:32;;;;;;;2.28;0.30;;;;;;;15.64;59.45;95224.22;4989185;28;20054;-66
2021/05/18 07:43:58;;;;;;;0.47;0.40;;;;;;;15.83;55.31;95219.09;4989237;28;20408;-67
2021/05/18 07:46:24;;;;;;;1.52;0.20;;;;;;;14.66;56.32;95226.56;4987227;28;20034;-64
2021/05/18 07:59:36;;;;;;;0.20;0.20;;;;;;;15.05;55.44;95211.88;4991120;28;20511;-65
2021/05/18 08:07:35;;;;;;;0.68;0.40;;;;;;;15.79;54.02;95222.78;4992926;28;20423;-72
2021/05/18 08:10:21;;;;;;;1.60;0.50;;;;;;;15.75;53.09;95230.69;4992532;28;20400;-69
2021/05/18 08:12:47;;;;;;;1.17;0.40;;;;;;;15.29;56.92;95218.41;4992011;28;20053;-66
2021/05/18 08:17:46;;;;;;;2.67;0.20;;;;;;;14.37;56.19;95222.00;4992635;28;20030;-67
2021/05/18 10:35:34;;;;;;;0.47;0.10;;;;;;;10.21;79.57;95231.31;4992236;28;20030;-66
2021/05/18 10:38:06;;;;;;;0.63;0.50;;;;;;;10.08;78.57;95251.50;4990383;28;20037;-67
2021/05/18 10:40:35;;;;;;;0.10;0.10;;;;;;;10.13;79.72;95240.75;4989955;28;20039;-64
2021/05/18 10:43:19;;;;;;;0.35;0.20;;;;;;;10.89;78.17;95232.97;4989406;28;20050;-65
2021/05/18 10:45:59;;;;;;;1.05;0.30;;;;;;;11.19;75.38;95224.22;4989655;28;20057;-65
2021/05/18 10:48:25;;;;;;;0.73;0.20;;;;;;;11.56;74.41;95210.75;4989663;28;20126;-66
2021/05/18 10:50:50;;;;;;;0.10;0.10;;;;;;;11.43;74.78;95215.09;4988438;28;20113;-66
2021/05/18 10:53:24;;;;;;;0.25;0.13;;;;;;;11.74;73.94;95199.06;4991128;28;20022;-66
2021/05/18 10:56:07;;;;;;;0.08;0.08;;;;;;;11.31;76.32;95238.84;4989516;28;20125;-66
2021/05/18 10:58:33;;;;;;;1.23;0.13;;;;;;;12.03;74.55;95211.88;4989751;28;20030;-66
2021/05/18 11:01:00;;;;;;;0.20;0.20;;;;;;;11.94;74.08;95227.84;4989778;28;20054;-66
2021/05/18 11:03:25;;;;;;;0.20;0.13;;;;;;;12.45;71.59;95236.25;4989174;28;20357;-64
2021/05/18 11:05:51;;;;;;;0.30;0.30;;;;;;;11.32;73.19;95171.97;4989282;28;20034;-65
2021/05/18 11:08:17;;;;;;;1.02;0.40;;;;;;;10.86;75.21;95229.03;4991323;28;20027;-65
2021/05/18 11:10:47;;;;;;;0.13;0.13;;;;;;;10.37;76.83;95259.94;4989535;28;20202;-65
2021/05/18 11:13:13;;;;;;;0.40;0.20;;;;;;;10.20;78.79;95264.28;4989015;28;20049;-66
2021/05/18 11:15:39;;;;;;;0.50;0.28;;;;;;;10.16;80.98;95261.44;4989421;28;20385;-66
2021/05/18 11:18:04;;;;;;;0.60;0.20;;;;;;;10.49;79.02;95261.28;4989302;28;20045;-67
2021/05/18 11:23:31;;;;;;;0.35;0.10;;;;;;;9.86;78.39;95257.53;4990837;28;20162;-66
2021/05/18 11:26:08;;;;;;;0.50;0.28;;;;;;;10.46;79.89;95246.72;4989702;28;20594;-66
2021/05/18 11:28:40;;;;;;;1.35;0.30;;;;;;;11.53;74.51;95238.81;4989309;28;20035;-67
2021/05/18 11:31:14;;;;;;;0.80;0.25;;;;;;;10.34;69.81;95217.22;4989528;28;20035;-67
2021/05/18 11:33:49;;;;;;;0.70;0.38;;;;;;;10.49;71.55;95240.78;4988894;28;20066;-66
2021/05/18 11:36:19;;;;;;;0.45;0.20;;;;;;;10.94;71.77;95236.28;4991526;28;20034;-66
2021/05/18 11:38:52;;;;;;;1.00;0.30;;;;;;;12.19;66.39;95236.22;4992036;28;20034;-66
2021/05/18 11:41:19;;;;;;;0.43;0.20;;;;;;;12.18;67.84;95223.97;4995498;28;20053;-66
2021/05/18 11:43:49;;;;;;;2.25;0.43;;;;;;;13.59;65.71;95221.66;4991579;28;20044;-66
2021/05/18 11:46:15;;;;;;;0.40;0.20;;;;;;;12.40;65.19;95212.41;4993268;28;20074;-66
2021/05/18 11:48:52;;;;;;;1.80;0.22;;;;;;;13.81;65.03;95215.25;4993292;28;20069;-66
2021/05/18 11:51:18;;;;;;;0.20;0.20;;;;;;;13.07;58.42;95082.91;4993027;28;20038;-66
2021/05/18 11:53:47;;;;;;;0.35;0.20;;;;;;;13.11;63.01;95214.72;4992502;28;20030;-66
2021/05/18 11:56:16;;;;;;;1.08;0.17;;;;;;;14.79;59.71;95219.34;4994832;28;20407;-66
2021/05/18 11:58:41;;;;;;;0.20;0.13;;;;;;;15.04;57.06;95204.94;4991543;28;20448;-67
2021/05/18 12:01:07;;;;;;;0.77;0.20;;;;;;;15.30;55.77;95210.06;4992878;28;20062;-70
2021/05/18 12:03:35;;;;;;;0.63;0.20;;;;;;;13.43;57.90;95214.16;4992444;28;20496;-66
2021/05/18 12:06:03;;;;;;;1.20;0.40;;;;;;;12.32;62.78;95219.28;4992628;28;20038;-66
2021/05/18 12:08:34;;;;;;;0.93;0.30;;;;;;;13.68;61.38;95209.03;4991465;28;20093;-66
2021/05/18 12:11:14;;;;;;;0.43;0.40;;;;;;;13.53;59.42;95211.13;4994460;28;20030;-66
2021/05/18 12:13:41;;;;;;;1.05;0.10;;;;;;;12.52;59.22;95195.75;4991960;28;20042;-65
2021/05/18 12:16:11;;;;;;;1.65;0.08;;;;;;;11.35;63.23;95197.19;4991349;28;20089;-65
2021/05/18 12:18:38;;;;;;;1.10;0.28;;;;;;;11.73;62.21;95199.41;4992651;28;20037;-65
2021/05/18 12:21:11;;;;;;;2.13;0.32;;;;;;;11.25;62.80;95222.22;4992057;28;20038;-66
2021/05/18 12:23:37;;;;;;;0.52;0.20;;;;;;;11.54;62.42;95213.75;4991926;28;20023;-66
2021/05/18 12:26:15;;;;;;;3.35;0.50;;;;;;;11.49;64.64;95210.44;4992948;28;20479;-65
2021/05/18 12:29:04;;;;;;;0.50;0.20;;;;;;;11.40;64.42;95203.19;4992241;28;20402;-65
2021/05/18 12:31:35;;;;;;;3.03;0.20;;;;;;;12.25;63.17;95196.84;4990960;28;20042;-66
2021/05/18 12:34:03;;;;;;;0.20;0.20;;;;;;;13.55;62.17;95199.34;4989963;28;20101;-66
2021/05/18 12:36:29;;;;;;;0.38;0.17;;;;;;;14.61;58.74;95196.53;4992142;28;20304;-66
2021/05/18 12:39:15;;;;;;;0.68;0.20;;;;;;;15.18;55.74;95169.81;4992064;28;20038;-66
2021/05/18 12:41:52;;;;;;;1.08;0.20;;;;;;;15.40;53.63;95181.25;4992276;28;20019;-66
2021/05/18 12:44:19;;;;;;;0.45;0.20;;;;;;;16.00;54.93;95180.50;4993390;28;20023;-66
2021/05/18 12:47:11;;;;;;;2.55;0.30;;;;;;;15.05;55.81;95174.38;4991873;28;20089;-67
2021/05/18 12:49:39;;;;;;;1.40;0.20;;;;;;;14.67;55.65;95181.81;4990763;28;20043;-67
2021/05/18 12:52:11;;;;;;;2.05;0.30;;;;;;;14.73;55.04;95172.47;4991838;28;20269;-66
2021/05/18 12:54:40;;;;;;;0.70;0.40;;;;;;;15.17;55.62;95181.66;4991830;28;20054;-66
2021/05/18 12:57:06;;;;;;;2.15;0.95;;;;;;;13.29;58.19;95194.09;4991805;28;20562;-65
2021/05/18 12:59:32;;;;;;;0.30;0.30;;;;;;;12.38;59.85;95186.00;4991732;28;20030;-64
2021/05/18 13:01:59;;;;;;;0.60;0.40;;;;;;;13.40;58.60;95160.56;4993683;28;20026;-66
2021/05/18 13:04:24;;;;;;;1.40;0.30;;;;;;;14.04;57.13;95173.78;4991099;28;20057;-66
2021/05/18 13:06:51;;;;;;;1.73;0.30;;;;;;;13.35;58.27;95156.19;4991616;28;20043;-66
2021/05/18 13:09:29;;;;;;;1.20;0.30;;;;;;;14.01;53.33;95151.13;4991594;28;20092;-67
2021/05/18 13:12:15;;;;;;;2.22;0.82;;;;;;;14.36;53.01;95155.44;4990350;28;20100;-67
2021/05/18 13:15:19;;;;;;;0.73;0.20;;;;;;;13.28;55.79;95150.56;4991516;28;20492;-66
2021/05/18 13:17:58;;;;;;;0.28;0.10;;;;;;;13.71;54.78;95133.53;4980377;28;20081;-66
2021/05/18 13:20:26;;;;;;;0.93;0.20;;;;;;;13.78;54.73;95139.97;4993350;28;20623;-66
2021/05/18 13:22:57;;;;;;;0.45;0.45;;;;;;;14.09;54.49;95127.34;4990731;28;20038;-65
2021/05/18 13:28:07;;;;;;;2.15;0.93;;;;;;;15.69;49.74;95130.13;4991466;28;20539;-66
2021/05/18 13:30:35;;;;;;;1.15;0.30;;;;;;;14.78;51.52;95132.09;4991291;28;20030;-66
2021/05/18 13:33:00;;;;;;;0.77;0.65;;;;;;;15.46;49.69;95118.28;4990763;28;20050;-66
2021/05/18 13:35:29;;;;;;;1.67;0.40;;;;;;;14.86;49.93;95109.03;4993083;28;20027;-62
2021/05/18 13:37:54;;;;;;;1.08;0.40;;;;;;;14.75;50.48;95098.75;4991949;28;20117;-66
2021/05/18 13:40:20;;;;;;;0.98;0.30;;;;;;;14.84;51.37;95104.00;4991032;28;20485;-66
2021/05/18 13:42:51;;;;;;;0.57;0.28;;;;;;;14.95;50.64;95115.88;4990566;28;20043;-66
2021/05/18 13:45:17;;;;;;;0.55;0.28;;;;;;;15.02;50.79;95105.38;4989579;28;20043;-66
2021/05/18 13:47:42;;;;;;;3.90;0.70;;;;;;;14.80;50.54;95101.22;4990886;28;20026;-67
2021/05/18 13:50:08;;;;;;;1.08;0.47;;;;;;;14.28;51.39;95099.00;4992867;28;20022;-66
2021/05/18 13:52:34;;;;;;;0.40;0.25;;;;;;;14.88;50.96;95104.91;4990469;28;20049;-66
2021/05/18 13:54:59;;;;;;;1.52;0.32;;;;;;;16.63;48.76;95092.22;4990692;28;20039;-66
2021/05/18 13:57:25;;;;;;;0.68;0.25;;;;;;;15.57;49.08;95104.09;4989853;28;20531;-66
2021/05/18 13:59:51;;;;;;;0.50;0.20;;;;;;;15.56;50.01;95107.13;4989064;28;20085;-68
2021/05/18 14:02:17;;;;;;;0.82;0.30;;;;;;;15.54;48.55;95104.75;4990863;28;20372;-65
2021/05/18 14:04:43;;;;;;;2.22;0.52;;;;;;;15.90;48.19;95100.50;4990076;28;20069;-65
2021/05/18 14:10:17;;;;;;;1.30;0.40;;;;;;;15.13;50.95;95078.94;4990390;28;20093;-67
2021/05/18 14:12:43;;;;;;;2.78;0.43;;;;;;;15.66;49.37;95084.44;4989731;28;20031;-65
2021/05/18 14:15:08;;;;;;;1.10;0.30;;;;;;;15.99;49.16;95108.41;4990032;28;20069;-65
2021/05/18 14:17:34;;;;;;;1.00;0.45;;;;;;;15.73;47.33;95085.44;4990281;28;20057;-65
2021/05/18 14:20:00;;;;;;;0.30;0.30;;;;;;;16.04;48.21;95092.09;4991893;28;20036;-65
2021/05/18 14:22:25;;;;;;;2.13;0.32;;;;;;;16.27;47.47;95095.03;4988331;28;20050;-65
2021/05/18 14:24:56;;;;;;;2.17;0.32;;;;;;;17.07;46.26;95081.47;4990093;28;20039;-66
2021/05/18 14:27:22;;;;;;;0.45;0.30;;;;;;;16.72;45.46;95075.19;4989866;28;20034;-65
2021/05/18 14:29:48;;;;;;;0.50;0.30;;;;;;;16.25;47.05;95073.13;4989429;28;20047;-66
2021/05/18 14:32:14;;;;;;;0.57;0.30;;;;;;;15.77;48.92;95098.97;4991148;28;20025;-66
2021/05/18 14:34:40;;;;;;;2.80;0.50;;;;;;;15.59;47.97;95085.75;4988577;28;20034;-65
2021/05/18 14:37:05;;;;;;;0.80;0.30;;;;;;;15.33;49.21;95075.38;4989935;28;20038;-65
2021/05/18 14:40:09;;;;;;;0.35;0.20;;;;;;;14.83;48.97;95094.41;4989914;28;20037;-66
2021/05/18 14:45:09;;;;;;;1.30;0.20;;;;;;;12.95;56.73;95124.44;4989925;28;20745;-65
2021/05/18 14:55:48;;;;;;;0.45;0.28;;;;;;;11.12;63.90;95144.03;4989399;28;20045;-65
2021/05/18 14:58:16;;;;;;;0.13;0.13;;;;;;;11.94;60.54;95169.22;4989220;28;20034;-66
2021/05/18 15:00:42;;;;;;;0.20;0.20;;;;;;;11.01;62.19;95056.75;4989413;28;20045;-67
2021/05/18 15:03:09;;;;;;;0.20;0.20;;;;;;;11.65;61.30;95135.09;4987534;28;20030;-65
2021/05/18 15:05:34;;;;;;;1.13;0.30;;;;;;;12.03;60.35;95133.75;4989581;28;20030;-66
2021/05/18 15:08:00;;;;;;;0.20;0.20;;;;;;;12.26;59.49;95151.19;4991276;28;20021;-66
2021/05/18 15:10:27;;;;;;;0.28;0.20;;;;;;;12.46;59.10;95125.78;4987989;28;20133;-66
2021/05/18 15:12:52;;;;;;;0.35;0.20;;;;;;;13.18;57.57;95121.50;4988830;28;20039;-66
2021/05/18 15:15:18;;;;;;;1.48;0.32;;;;;;;13.69;55.71;95135.75;4988239;28;20066;-67
2021/05/18 15:17:44;;;;;;;0.90;0.30;;;;;;;13.28;56.30;95126.53;4989293;28;20026;-66
2021/05/18 15:20:10;;;;;;;0.65;0.40;;;;;;;12.72;57.55;95133.75;4991448;28;20033;-66
2021/05/18 15:22:37;;;;;;;0.50;0.25;;;;;;;13.55;55.93;95119.16;4986954;28;20048;-66
2021/05/18 15:25:03;;;;;;;1.60;0.30;;;;;;;12.70;58.07;95119.94;4989090;28;20042;-66
2021/05/18 15:27:28;;;;;;;1.33;0.60;;;;;;;12.88;57.38;95118.78;4988909;28;20077;-67
2021/05/18 15:29:54;;;;;;;0.70;0.22;;;;;;;13.50;57.14;95107.56;4989220;28;20035;-67
2021/05/18 15:32:19;;;;;;;1.05;0.30;;;;;;;14.43;53.88;95104.84;4990411;28;20026;-67
2021/05/18 15:34:45;;;;;;;0.30;0.20;;;;;;;14.79;51.69;95077.44;4988835;28;20046;-65
2021/05/18 15:37:13;;;;;;;0.70;0.20;;;;;;;15.05;51.74;95099.38;4989148;28;20124;-64
2021/05/18 15:39:39;;;;;;;1.75;0.30;;;;;;;13.75;53.93;95110.41;4989145;28;20046;-65
2021/05/18 15:42:04;;;;;;;0.95;0.30;;;;;;;14.14;52.72;95092.38;4988951;28;20393;-65
2021/05/18 15:44:30;;;;;;;0.45;0.20;;;;;;;13.64;53.74;95118.03;4988285;28;20031;-65
2021/05/18 15:46:55;;;;;;;0.43;0.20;;;;;;;14.35;53.49;95090.44;4990841;28;20030;-65
2021/05/18 15:49:22;;;;;;;1.15;0.25;;;;;;;14.50;52.55;95089.88;4989280;28;20058;-74
2021/05/18 15:51:48;;;;;;;0.60;0.40;;;;;;;14.96;50.89;95114.75;4989362;28;20038;-67
2021/05/18 15:54:14;;;;;;;0.63;0.45;;;;;;;15.37;50.47;95083.53;4988717;28;20030;-67
2021/05/18 15:56:39;;;;;;;0.52;0.20;;;;;;;15.07;49.08;95078.38;4987299;28;20027;-66
2021/05/18 15:59:04;;;;;;;1.17;0.52;;;;;;;16.59;47.61;95088.66;4990887;28;20114;-64
2021/05/18 16:01:30;;;;;;;0.35;0.13;;;;;;;15.62;47.40;95089.69;4988969;28;20038;-67
2021/05/18 16:03:55;;;;;;;0.60;0.30;;;;;;;15.64;47.57;95098.19;4988647;28;20431;-66
2021/05/18 16:06:22;;;;;;;0.70;0.20;;;;;;;18.63;44.20;95069.06;4989442;28;20038;-71
2021/05/18 16:11:14;;;;;;;1.13;0.22;;;;;;;19.59;38.55;95054.56;4991284;28;20022;-66
2021/05/18 16:13:40;;;;;;;0.43;0.20;;;;;;;21.46;36.31;95074.47;4988450;28;20039;-69
2021/05/18 16:16:08;;;;;;;0.13;0.13;;;;;;;24.05;32.57;95057.38;4988990;28;20109;-66
2021/05/18 16:18:35;;;;;;;0.35;0.25;;;;;;;22.64;31.50;95062.38;4988726;28;20453;-65
2021/05/18 16:21:01;;;;;;;0.20;0.20;;;;;;;23.36;30.11;95057.84;4989503;28;20038;-70
2021/05/18 16:23:26;;;;;;;0.35;0.17;;;;;;;;;;4993724;28;20395;-70
2021/05/18 16:25:54;;;;;;;0.77;0.30;;;;;;;21.17;33.08;95057.97;4992564;28;20042;-66
2021/05/18 16:28:20;;;;;;;0.40;0.30;;;;;;;20.89;34.47;95074.72;4990757;28;20065;-68
2021/05/18 16:30:45;;;;;;;0.60;0.40;;;;;;;19.80;36.55;95066.81;4991130;28;20046;-69
2021/05/18 16:33:10;;;;;;;0.15;0.10;;;;;;;20.33;37.45;95064.81;4992156;28;20484;-64
2021/05/18 16:35:36;;;;;;;0.80;0.30;;;;;;;21.62;35.75;95052.56;4992331;28;20366;-67
2021/05/18 16:38:02;;;;;;;1.13;0.40;;;;;;;21.65;34.54;95063.41;4992681;28;20022;-65
2021/05/18 16:40:28;;;;;;;2.03;0.20;;;;;;;18.68;38.89;95060.75;4991899;28;20046;-68
2021/05/18 16:42:53;;;;;;;1.58;0.40;;;;;;;17.82;40.94;95066.31;4991148;28;20133;-68
2021/05/18 16:45:19;;;;;;;0.38;0.30;;;;;;;15.29;46.73;95068.34;4991388;28;20121;-67
2021/05/18 16:47:44;;;;;;;0.38;0.20;;;;;;;15.51;46.75;95051.81;4991765;28;20053;-66
2021/05/18 16:50:10;;;;;;;0.70;0.22;;;;;;;16.51;46.04;95070.78;4993385;28;20097;-62
2021/05/18 16:52:37;;;;;;;0.50;0.47;;;;;;;16.99;45.17;95073.56;4991178;28;20038;-63
2021/05/18 16:55:05;;;;;;;0.65;0.30;;;;;;;17.39;44.96;95068.00;4990267;28;20060;-69
2021/05/18 16:57:30;;;;;;;1.52;0.47;;;;;;;18.37;44.11;95040.91;4990311;28;20117;-67
2021/05/18 16:59:56;;;;;;;0.60;0.20;;;;;;;19.16;42.13;95061.19;4990618;28;20377;-65
2021/05/18 17:02:21;;;;;;;0.47;0.32;;;;;;;19.28;40.67;95052.13;4991622;28;20057;-69